sensor_id;sensor_type;location;lat;lon;timestamp;temperature;humidity
1880;DHT22;49285;49.002;8.390;2022-11-20T00:02:15;8.10;99.90
1880;DHT22;49285;49.002;8.390;2022-11-20T00:04:40;8.10;99.90
1880;DHT22;49285;49.002;8.390;2022-11-20T00:07:06;8.10;99.90
1880;DHT22;49285;49.002;8.390;2022-11-20T00:09:31;8.10;99.90
1880;DHT22;49285;49.002;8.390;2022-11-20T00:11:57;8.10;99.90
1880;DHT22;49285;49.002;8.390;2022-11-20T00:14:22;8.20;99.90
1880;DHT22;49285;49.002;8.390;2022-11-20T00:16:48;8.10;99.90
1880;DHT22;49285;49.002;8.390;2022-11-20T00:19:14;8.10;99.90
1880;DHT22;49285;49.002;8.390;2022-11-20T00:21:39;8.10;99.90
1880;DHT22;49285;49.002;8.390;2022-11-20T00:24:05;8.00;99.90
1880;DHT22;49285;49.002;8.390;2022-11-20T00:26:31;8.10;99.90
1880;DHT22;49285;49.002;8.390;2022-11-20T00:28:59;8.00;99.90
1880;DHT22;49285;49.002;8.390;2022-11-20T00:31:25;8.00;99.90
1880;DHT22;49285;49.002;8.390;2022-11-20T00:33:52;8.00;99.90
1880;DHT22;49285;49.002;8.390;2022-11-20T00:36:28;8.10;99.90
1880;DHT22;49285;49.002;8.390;2022-11-20T00:38:57;8.10;99.90
1880;DHT22;49285;49.002;8.390;2022-11-20T00:41:24;8.00;99.90
1880;DHT22;49285;49.002;8.390;2022-11-20T00:43:54;8.00;99.90
1880;DHT22;49285;49.002;8.390;2022-11-20T00:46:26;8.00;99.90
1880;DHT22;49285;49.002;8.390;2022-11-20T00:48:52;8.00;99.90
1880;DHT22;49285;49.002;8.390;2022-11-20T00:51:19;8.10;99.90
1880;DHT22;49285;49.002;8.390;2022-11-20T00:53:46;8.10;99.90
1880;DHT22;49285;49.002;8.390;2022-11-20T00:56:14;8.10;99.90
1880;DHT22;49285;49.002;8.390;2022-11-20T00:58:42;8.10;99.90
1880;DHT22;49285;49.002;8.390;2022-11-20T01:01:30;8.20;99.90
1880;DHT22;49285;49.002;8.390;2022-11-20T01:03:58;8.20;99.90
1880;DHT22;49285;49.002;8.390;2022-11-20T01:06:33;8.20;99.90
1880;DHT22;49285;49.002;8.390;2022-11-20T01:09:01;8.20;99.90
1880;DHT22;49285;49.002;8.390;2022-11-20T01:11:29;8.20;99.90
1880;DHT22;49285;49.002;8.390;2022-11-20T01:13:56;8.20;99.90
1880;DHT22;49285;49.002;8.390;2022-11-20T01:16:25;8.20;99.90
1880;DHT22;49285;49.002;8.390;2022-11-20T01:18:52;8.20;99.90
1880;DHT22;49285;49.002;8.390;2022-11-20T01:21:24;8.20;99.90
1880;DHT22;49285;49.002;8.390;2022-11-20T01:23:50;8.20;99.90
1880;DHT22;49285;49.002;8.390;2022-11-20T01:26:25;8.20;99.90
1880;DHT22;49285;49.002;8.390;2022-11-20T01:28:51;8.20;99.90
1880;DHT22;49285;49.002;8.390;2022-11-20T01:31:17;8.20;99.90
1880;DHT22;49285;49.002;8.390;2022-11-20T01:33:44;8.20;99.90
1880;DHT22;49285;49.002;8.390;2022-11-20T01:36:11;8.20;99.90
1880;DHT22;49285;49.002;8.390;2022-11-20T01:38:37;8.10;99.90
1880;DHT22;49285;49.002;8.390;2022-11-20T01:41:03;8.10;99.90
1880;DHT22;49285;49.002;8.390;2022-11-20T01:43:28;8.10;99.90
1880;DHT22;49285;49.002;8.390;2022-11-20T01:48:40;8.20;99.90
1880;DHT22;49285;49.002;8.390;2022-11-20T01:51:15;8.20;99.90
1880;DHT22;49285;49.002;8.390;2022-11-20T01:53:42;8.20;99.90
1880;DHT22;49285;49.002;8.390;2022-11-20T01:56:10;8.20;99.90
1880;DHT22;49285;49.002;8.390;2022-11-20T01:58:41;8.30;99.90
1880;DHT22;49285;49.002;8.390;2022-11-20T02:01:07;8.30;99.90
1880;DHT22;49285;49.002;8.390;2022-11-20T02:03:33;8.30;99.90
1880;DHT22;49285;49.002;8.390;2022-11-20T02:06:19;8.40;99.90
1880;DHT22;49285;49.002;8.390;2022-11-20T02:08:45;8.30;99.90
1880;DHT22;49285;49.002;8.390;2022-11-20T02:11:10;8.30;99.90
1880;DHT22;49285;49.002;8.390;2022-11-20T02:13:38;8.40;99.90
1880;DHT22;49285;49.002;8.390;2022-11-20T02:16:31;8.40;99.90
1880;DHT22;49285;49.002;8.390;2022-11-20T02:19:00;8.40;99.90
1880;DHT22;49285;49.002;8.390;2022-11-20T02:24:01;8.50;99.90
1880;DHT22;49285;49.002;8.390;2022-11-20T02:26:30;8.60;99.90
1880;DHT22;49285;49.002;8.390;2022-11-20T02:28:56;8.60;99.90
1880;DHT22;49285;49.002;8.390;2022-11-20T02:31:22;8.70;99.90
1880;DHT22;49285;49.002;8.390;2022-11-20T02:33:47;8.60;99.90
1880;DHT22;49285;49.002;8.390;2022-11-20T02:36:15;8.70;99.90
1880;DHT22;49285;49.002;8.390;2022-11-20T02:38:42;8.70;99.90
1880;DHT22;49285;49.002;8.390;2022-11-20T02:41:08;8.80;99.90
1880;DHT22;49285;49.002;8.390;2022-11-20T02:43:33;8.80;99.90
1880;DHT22;49285;49.002;8.390;2022-11-20T02:45:59;8.80;99.90
1880;DHT22;49285;49.002;8.390;2022-11-20T02:48:24;8.80;99.90
1880;DHT22;49285;49.002;8.390;2022-11-20T02:50:50;8.90;99.90
1880;DHT22;49285;49.002;8.390;2022-11-20T02:53:15;8.90;99.90
1880;DHT22;49285;49.002;8.390;2022-11-20T02:55:41;8.90;99.90
1880;DHT22;49285;49.002;8.390;2022-11-20T02:58:07;8.90;99.90
1880;DHT22;49285;49.002;8.390;2022-11-20T03:00:32;8.80;99.90
1880;DHT22;49285;49.002;8.390;2022-11-20T03:02:58;8.70;99.90
1880;DHT22;49285;49.002;8.390;2022-11-20T03:05:24;8.70;99.90
1880;DHT22;49285;49.002;8.390;2022-11-20T03:07:49;8.80;99.90
1880;DHT22;49285;49.002;8.390;2022-11-20T03:10:15;8.80;99.90
1880;DHT22;49285;49.002;8.390;2022-11-20T03:12:41;8.80;99.90
1880;DHT22;49285;49.002;8.390;2022-11-20T03:15:07;8.90;99.90
1880;DHT22;49285;49.002;8.390;2022-11-20T03:17:32;8.90;99.90
1880;DHT22;49285;49.002;8.390;2022-11-20T03:19:58;8.90;99.90
1880;DHT22;49285;49.002;8.390;2022-11-20T03:22:24;8.90;99.90
1880;DHT22;49285;49.002;8.390;2022-11-20T03:24:49;9.00;99.90
1880;DHT22;49285;49.002;8.390;2022-11-20T03:27:15;9.00;99.90
1880;DHT22;49285;49.002;8.390;2022-11-20T03:29:40;8.90;99.90
1880;DHT22;49285;49.002;8.390;2022-11-20T03:32:06;9.00;99.90
1880;DHT22;49285;49.002;8.390;2022-11-20T03:34:31;9.00;99.90
1880;DHT22;49285;49.002;8.390;2022-11-20T03:36:57;8.90;99.90
1880;DHT22;49285;49.002;8.390;2022-11-20T03:39:22;8.90;99.90
1880;DHT22;49285;49.002;8.390;2022-11-20T03:41:48;9.00;99.90
1880;DHT22;49285;49.002;8.390;2022-11-20T03:44:13;8.90;99.90
1880;DHT22;49285;49.002;8.390;2022-11-20T03:46:39;8.80;99.90
1880;DHT22;49285;49.002;8.390;2022-11-20T03:49:04;8.80;99.90
1880;DHT22;49285;49.002;8.390;2022-11-20T03:51:32;8.80;99.90
1880;DHT22;49285;49.002;8.390;2022-11-20T03:54:00;8.80;99.90
1880;DHT22;49285;49.002;8.390;2022-11-20T03:56:28;8.90;99.90
1880;DHT22;49285;49.002;8.390;2022-11-20T03:58:54;8.80;99.90
1880;DHT22;49285;49.002;8.390;2022-11-20T04:01:30;8.80;99.90
1880;DHT22;49285;49.002;8.390;2022-11-20T04:03:56;8.80;99.90
1880;DHT22;49285;49.002;8.390;2022-11-20T04:06:25;8.80;99.90
1880;DHT22;49285;49.002;8.390;2022-11-20T04:08:50;8.80;99.90
1880;DHT22;49285;49.002;8.390;2022-11-20T04:11:25;8.80;99.90
1880;DHT22;49285;49.002;8.390;2022-11-20T04:13:55;8.80;99.90
1880;DHT22;49285;49.002;8.390;2022-11-20T04:16:22;8.80;99.90
1880;DHT22;49285;49.002;8.390;2022-11-20T04:18:55;8.80;99.90
1880;DHT22;49285;49.002;8.390;2022-11-20T04:21:21;8.70;99.90
1880;DHT22;49285;49.002;8.390;2022-11-20T04:23:47;8.70;99.90
1880;DHT22;49285;49.002;8.390;2022-11-20T04:26:13;8.80;99.90
1880;DHT22;49285;49.002;8.390;2022-11-20T04:28:39;8.80;99.90
1880;DHT22;49285;49.002;8.390;2022-11-20T04:31:12;8.80;99.90
1880;DHT22;49285;49.002;8.390;2022-11-20T04:33:39;8.80;99.90
1880;DHT22;49285;49.002;8.390;2022-11-20T04:36:13;8.80;99.90
1880;DHT22;49285;49.002;8.390;2022-11-20T04:38:40;8.90;99.90
1880;DHT22;49285;49.002;8.390;2022-11-20T04:41:07;8.90;99.90
1880;DHT22;49285;49.002;8.390;2022-11-20T04:43:33;8.80;99.90
1880;DHT22;49285;49.002;8.390;2022-11-20T04:46:00;8.90;99.90
1880;DHT22;49285;49.002;8.390;2022-11-20T04:48:27;8.90;99.90
1880;DHT22;49285;49.002;8.390;2022-11-20T04:50:53;8.90;99.90
1880;DHT22;49285;49.002;8.390;2022-11-20T04:53:18;8.90;99.90
1880;DHT22;49285;49.002;8.390;2022-11-20T04:55:44;8.90;99.90
1880;DHT22;49285;49.002;8.390;2022-11-20T04:58:10;8.90;99.90
1880;DHT22;49285;49.002;8.390;2022-11-20T05:00:36;8.90;99.90
1880;DHT22;49285;49.002;8.390;2022-11-20T05:03:01;8.90;99.90
1880;DHT22;49285;49.002;8.390;2022-11-20T05:05:27;8.90;99.90
1880;DHT22;49285;49.002;8.390;2022-11-20T05:07:52;9.00;99.90
1880;DHT22;49285;49.002;8.390;2022-11-20T05:10:18;9.00;99.90
1880;DHT22;49285;49.002;8.390;2022-11-20T05:12:43;9.00;99.90
1880;DHT22;49285;49.002;8.390;2022-11-20T05:15:09;9.00;99.90
1880;DHT22;49285;49.002;8.390;2022-11-20T05:17:35;9.00;99.90
1880;DHT22;49285;49.002;8.390;2022-11-20T05:20:00;8.90;99.90
1880;DHT22;49285;49.002;8.390;2022-11-20T05:22:26;8.90;99.90
1880;DHT22;49285;49.002;8.390;2022-11-20T05:24:51;8.80;99.90
1880;DHT22;49285;49.002;8.390;2022-11-20T05:27:17;8.80;99.90
1880;DHT22;49285;49.002;8.390;2022-11-20T05:29:43;8.80;99.90
1880;DHT22;49285;49.002;8.390;2022-11-20T05:32:09;8.80;99.90
1880;DHT22;49285;49.002;8.390;2022-11-20T05:34:35;8.90;99.90
1880;DHT22;49285;49.002;8.390;2022-11-20T05:37:02;8.90;99.90
1880;DHT22;49285;49.002;8.390;2022-11-20T05:39:28;8.90;99.90
1880;DHT22;49285;49.002;8.390;2022-11-20T05:41:53;8.90;99.90
1880;DHT22;49285;49.002;8.390;2022-11-20T05:44:38;8.90;99.90
1880;DHT22;49285;49.002;8.390;2022-11-20T05:47:03;8.90;99.90
1880;DHT22;49285;49.002;8.390;2022-11-20T05:49:29;8.80;99.90
1880;DHT22;49285;49.002;8.390;2022-11-20T05:51:55;8.80;99.90
1880;DHT22;49285;49.002;8.390;2022-11-20T05:54:20;8.90;99.90
1880;DHT22;49285;49.002;8.390;2022-11-20T05:56:46;8.90;99.90
1880;DHT22;49285;49.002;8.390;2022-11-20T05:59:11;8.80;99.90
1880;DHT22;49285;49.002;8.390;2022-11-20T06:01:37;8.80;99.90
1880;DHT22;49285;49.002;8.390;2022-11-20T06:04:02;8.80;99.90
1880;DHT22;49285;49.002;8.390;2022-11-20T06:06:28;8.80;99.90
1880;DHT22;49285;49.002;8.390;2022-11-20T06:08:54;8.80;99.90
1880;DHT22;49285;49.002;8.390;2022-11-20T06:11:20;8.80;99.90
1880;DHT22;49285;49.002;8.390;2022-11-20T06:13:46;8.80;99.90
1880;DHT22;49285;49.002;8.390;2022-11-20T06:16:14;8.80;99.90
1880;DHT22;49285;49.002;8.390;2022-11-20T06:18:41;8.80;99.90
1880;DHT22;49285;49.002;8.390;2022-11-20T06:21:11;8.80;99.90
1880;DHT22;49285;49.002;8.390;2022-11-20T06:23:38;8.80;99.90
1880;DHT22;49285;49.002;8.390;2022-11-20T06:26:09;8.90;99.90
1880;DHT22;49285;49.002;8.390;2022-11-20T06:28:35;8.90;99.90
1880;DHT22;49285;49.002;8.390;2022-11-20T06:31:00;8.90;99.90
1880;DHT22;49285;49.002;8.390;2022-11-20T06:33:26;8.80;99.90
1880;DHT22;49285;49.002;8.390;2022-11-20T06:35:52;8.80;99.90
1880;DHT22;49285;49.002;8.390;2022-11-20T06:38:17;8.90;99.90
1880;DHT22;49285;49.002;8.390;2022-11-20T06:40:43;8.80;99.90
1880;DHT22;49285;49.002;8.390;2022-11-20T06:43:12;8.80;99.90
1880;DHT22;49285;49.002;8.390;2022-11-20T06:45:37;8.70;99.90
1880;DHT22;49285;49.002;8.390;2022-11-20T06:48:03;8.80;99.90
1880;DHT22;49285;49.002;8.390;2022-11-20T06:50:29;8.80;99.90
1880;DHT22;49285;49.002;8.390;2022-11-20T06:52:55;8.80;99.90
1880;DHT22;49285;49.002;8.390;2022-11-20T06:55:20;8.80;99.90
1880;DHT22;49285;49.002;8.390;2022-11-20T06:57:46;8.80;99.90
1880;DHT22;49285;49.002;8.390;2022-11-20T07:00:12;8.70;99.90
1880;DHT22;49285;49.002;8.390;2022-11-20T07:02:37;8.70;99.90
1880;DHT22;49285;49.002;8.390;2022-11-20T07:05:03;8.70;99.90
1880;DHT22;49285;49.002;8.390;2022-11-20T07:07:29;8.70;99.90
1880;DHT22;49285;49.002;8.390;2022-11-20T07:09:54;8.80;99.90
1880;DHT22;49285;49.002;8.390;2022-11-20T07:12:20;8.80;99.90
1880;DHT22;49285;49.002;8.390;2022-11-20T07:14:45;8.80;99.90
1880;DHT22;49285;49.002;8.390;2022-11-20T07:17:11;8.80;99.90
1880;DHT22;49285;49.002;8.390;2022-11-20T07:19:37;8.80;99.90
1880;DHT22;49285;49.002;8.390;2022-11-20T07:22:03;8.80;99.90
1880;DHT22;49285;49.002;8.390;2022-11-20T07:24:28;8.80;99.90
1880;DHT22;49285;49.002;8.390;2022-11-20T07:26:54;8.70;99.90
1880;DHT22;49285;49.002;8.390;2022-11-20T07:29:19;8.70;99.90
1880;DHT22;49285;49.002;8.390;2022-11-20T07:31:45;8.70;99.90
1880;DHT22;49285;49.002;8.390;2022-11-20T07:34:10;8.80;99.90
1880;DHT22;49285;49.002;8.390;2022-11-20T07:36:36;8.80;99.90
1880;DHT22;49285;49.002;8.390;2022-11-20T07:39:02;8.80;99.90
1880;DHT22;49285;49.002;8.390;2022-11-20T07:41:27;8.80;99.90
1880;DHT22;49285;49.002;8.390;2022-11-20T07:43:54;8.80;99.90
1880;DHT22;49285;49.002;8.390;2022-11-20T07:46:19;8.80;99.90
1880;DHT22;49285;49.002;8.390;2022-11-20T07:48:45;8.90;99.90
1880;DHT22;49285;49.002;8.390;2022-11-20T07:51:10;8.90;99.90
1880;DHT22;49285;49.002;8.390;2022-11-20T07:53:36;8.90;99.90
1880;DHT22;49285;49.002;8.390;2022-11-20T07:56:02;8.90;99.90
1880;DHT22;49285;49.002;8.390;2022-11-20T07:58:31;8.90;99.90
1880;DHT22;49285;49.002;8.390;2022-11-20T08:01:04;8.90;99.90
1880;DHT22;49285;49.002;8.390;2022-11-20T08:03:30;8.80;99.90
1880;DHT22;49285;49.002;8.390;2022-11-20T08:05:58;8.80;99.90
1880;DHT22;49285;49.002;8.390;2022-11-20T08:08:25;8.70;99.90
1880;DHT22;49285;49.002;8.390;2022-11-20T08:10:51;8.70;99.90
1880;DHT22;49285;49.002;8.390;2022-11-20T08:13:16;8.70;99.90
1880;DHT22;49285;49.002;8.390;2022-11-20T08:16:00;8.70;99.90
1880;DHT22;49285;49.002;8.390;2022-11-20T08:18:26;8.70;99.90
1880;DHT22;49285;49.002;8.390;2022-11-20T08:20:52;8.60;99.90
1880;DHT22;49285;49.002;8.390;2022-11-20T08:23:17;8.70;99.90
1880;DHT22;49285;49.002;8.390;2022-11-20T08:25:43;8.70;99.90
1880;DHT22;49285;49.002;8.390;2022-11-20T08:28:09;8.70;99.90
1880;DHT22;49285;49.002;8.390;2022-11-20T08:30:36;8.70;99.90
1880;DHT22;49285;49.002;8.390;2022-11-20T08:33:07;8.70;99.90
1880;DHT22;49285;49.002;8.390;2022-11-20T08:35:37;8.60;99.90
1880;DHT22;49285;49.002;8.390;2022-11-20T08:38:04;8.70;99.90
1880;DHT22;49285;49.002;8.390;2022-11-20T08:40:31;8.70;99.90
1880;DHT22;49285;49.002;8.390;2022-11-20T08:42:56;8.80;99.90
1880;DHT22;49285;49.002;8.390;2022-11-20T08:45:22;8.80;99.90
1880;DHT22;49285;49.002;8.390;2022-11-20T08:47:48;8.80;99.90
1880;DHT22;49285;49.002;8.390;2022-11-20T08:50:15;8.80;99.90
1880;DHT22;49285;49.002;8.390;2022-11-20T08:52:41;8.80;99.90
1880;DHT22;49285;49.002;8.390;2022-11-20T08:55:08;8.80;99.90
1880;DHT22;49285;49.002;8.390;2022-11-20T08:57:34;8.80;99.90
1880;DHT22;49285;49.002;8.390;2022-11-20T09:00:01;8.90;99.90
1880;DHT22;49285;49.002;8.390;2022-11-20T09:02:28;8.90;99.90
1880;DHT22;49285;49.002;8.390;2022-11-20T09:04:53;8.90;99.90
1880;DHT22;49285;49.002;8.390;2022-11-20T09:07:19;8.90;99.90
1880;DHT22;49285;49.002;8.390;2022-11-20T09:09:45;9.00;99.90
1880;DHT22;49285;49.002;8.390;2022-11-20T09:12:10;8.90;99.90
1880;DHT22;49285;49.002;8.390;2022-11-20T09:14:36;9.00;99.90
1880;DHT22;49285;49.002;8.390;2022-11-20T09:17:02;9.00;99.90
1880;DHT22;49285;49.002;8.390;2022-11-20T09:19:27;9.00;99.90
1880;DHT22;49285;49.002;8.390;2022-11-20T09:21:53;9.00;99.90
1880;DHT22;49285;49.002;8.390;2022-11-20T09:24:19;9.00;99.90
1880;DHT22;49285;49.002;8.390;2022-11-20T09:26:45;9.00;99.90
1880;DHT22;49285;49.002;8.390;2022-11-20T09:29:11;9.00;99.90
1880;DHT22;49285;49.002;8.390;2022-11-20T09:31:37;9.10;99.90
1880;DHT22;49285;49.002;8.390;2022-11-20T09:34:02;9.10;99.90
1880;DHT22;49285;49.002;8.390;2022-11-20T09:36:28;9.10;99.90
1880;DHT22;49285;49.002;8.390;2022-11-20T09:38:53;9.00;99.90
1880;DHT22;49285;49.002;8.390;2022-11-20T09:44:28;9.00;99.90
1880;DHT22;49285;49.002;8.390;2022-11-20T09:50:19;9.00;99.90
1880;DHT22;49285;49.002;8.390;2022-11-20T09:55:20;9.00;99.90
1880;DHT22;49285;49.002;8.390;2022-11-20T09:57:48;8.90;99.90
1880;DHT22;49285;49.002;8.390;2022-11-20T10:00:16;8.90;99.90
1880;DHT22;49285;49.002;8.390;2022-11-20T10:05:30;9.00;99.90
1880;DHT22;49285;49.002;8.390;2022-11-20T10:08:24;9.10;99.90
1880;DHT22;49285;49.002;8.390;2022-11-20T10:10:56;9.10;99.90
1880;DHT22;49285;49.002;8.390;2022-11-20T10:16:18;9.00;99.90
1880;DHT22;49285;49.002;8.390;2022-11-20T10:21:53;9.10;99.90
1880;DHT22;49285;49.002;8.390;2022-11-20T10:30:09;9.40;99.90
1880;DHT22;49285;49.002;8.390;2022-11-20T10:32:44;9.40;99.90
1880;DHT22;49285;49.002;8.390;2022-11-20T10:35:34;9.40;99.90
1880;DHT22;49285;49.002;8.390;2022-11-20T10:38:08;9.50;99.90
1880;DHT22;49285;49.002;8.390;2022-11-20T10:40:39;9.40;99.90
1880;DHT22;49285;49.002;8.390;2022-11-20T10:43:16;9.50;99.90
1880;DHT22;49285;49.002;8.390;2022-11-20T10:45:56;9.50;99.90
1880;DHT22;49285;49.002;8.390;2022-11-20T10:48:25;9.50;99.90
1880;DHT22;49285;49.002;8.390;2022-11-20T10:56:46;9.60;99.90
1880;DHT22;49285;49.002;8.390;2022-11-20T11:02:19;9.70;99.90
1880;DHT22;49285;49.002;8.390;2022-11-20T11:04:48;9.80;99.90
1880;DHT22;49285;49.002;8.390;2022-11-20T11:07:24;9.80;99.90
1880;DHT22;49285;49.002;8.390;2022-11-20T11:09:55;9.90;99.90
1880;DHT22;49285;49.002;8.390;2022-11-20T11:12:23;10.00;99.90
1880;DHT22;49285;49.002;8.390;2022-11-20T11:14:51;10.10;99.90
1880;DHT22;49285;49.002;8.390;2022-11-20T11:17:31;10.20;99.90
1880;DHT22;49285;49.002;8.390;2022-11-20T11:20:07;10.30;99.90
1880;DHT22;49285;49.002;8.390;2022-11-20T11:22:51;10.30;99.90
1880;DHT22;49285;49.002;8.390;2022-11-20T11:25:27;10.30;99.90
1880;DHT22;49285;49.002;8.390;2022-11-20T11:27:55;10.30;99.90
1880;DHT22;49285;49.002;8.390;2022-11-20T11:30:27;10.30;99.90
1880;DHT22;49285;49.002;8.390;2022-11-20T11:33:31;10.30;99.90
1880;DHT22;49285;49.002;8.390;2022-11-20T11:35:59;10.40;99.90
1880;DHT22;49285;49.002;8.390;2022-11-20T11:38:40;10.40;99.90
1880;DHT22;49285;49.002;8.390;2022-11-20T11:41:11;10.40;99.90
1880;DHT22;49285;49.002;8.390;2022-11-20T11:43:38;10.50;99.90
1880;DHT22;49285;49.002;8.390;2022-11-20T11:46:34;10.60;99.90
1880;DHT22;49285;49.002;8.390;2022-11-20T11:51:37;10.60;99.90
1880;DHT22;49285;49.002;8.390;2022-11-20T11:54:16;10.60;99.90
1880;DHT22;49285;49.002;8.390;2022-11-20T11:56:44;10.60;99.90
1880;DHT22;49285;49.002;8.390;2022-11-20T11:59:15;10.60;99.90
1880;DHT22;49285;49.002;8.390;2022-11-20T12:01:43;10.50;99.90
1880;DHT22;49285;49.002;8.390;2022-11-20T12:04:44;10.80;99.90
1880;DHT22;49285;49.002;8.390;2022-11-20T12:10:08;12.70;99.90
1880;DHT22;49285;49.002;8.390;2022-11-20T12:12:43;13.40;99.90
1880;DHT22;49285;49.002;8.390;2022-11-20T12:15:12;14.40;99.90
1880;DHT22;49285;49.002;8.390;2022-11-20T12:17:38;15.00;99.90
1880;DHT22;49285;49.002;8.390;2022-11-20T12:20:11;14.90;99.90
1880;DHT22;49285;49.002;8.390;2022-11-20T12:23:00;15.50;99.90
1880;DHT22;49285;49.002;8.390;2022-11-20T12:25:33;15.80;99.90
1880;DHT22;49285;49.002;8.390;2022-11-20T12:28:30;15.40;99.90
1880;DHT22;49285;49.002;8.390;2022-11-20T12:38:54;13.00;99.90
1880;DHT22;49285;49.002;8.390;2022-11-20T12:53:02;12.80;99.90
1880;DHT22;49285;49.002;8.390;2022-11-20T12:56:02;13.20;99.90
1880;DHT22;49285;49.002;8.390;2022-11-20T13:01:47;13.60;99.90
1880;DHT22;49285;49.002;8.390;2022-11-20T13:06:50;13.40;99.90
1880;DHT22;49285;49.002;8.390;2022-11-20T13:09:18;13.00;99.90
1880;DHT22;49285;49.002;8.390;2022-11-20T13:12:12;12.90;99.90
1880;DHT22;49285;49.002;8.390;2022-11-20T13:19:58;12.90;99.90
1880;DHT22;49285;49.002;8.390;2022-11-20T13:22:52;13.00;99.90
1880;DHT22;49285;49.002;8.390;2022-11-20T13:25:33;13.00;99.90
1880;DHT22;49285;49.002;8.390;2022-11-20T13:28:03;12.80;99.90
1880;DHT22;49285;49.002;8.390;2022-11-20T13:30:30;12.60;99.90
1880;DHT22;49285;49.002;8.390;2022-11-20T13:33:07;12.40;99.90
1880;DHT22;49285;49.002;8.390;2022-11-20T13:35:41;12.30;99.90
1880;DHT22;49285;49.002;8.390;2022-11-20T13:38:14;12.10;99.90
1880;DHT22;49285;49.002;8.390;2022-11-20T13:40:58;11.90;99.90
1880;DHT22;49285;49.002;8.390;2022-11-20T13:43:33;11.90;99.90
1880;DHT22;49285;49.002;8.390;2022-11-20T13:46:01;11.90;99.90
1880;DHT22;49285;49.002;8.390;2022-11-20T13:48:33;11.90;99.90
1880;DHT22;49285;49.002;8.390;2022-11-20T13:51:09;11.80;99.90
1880;DHT22;49285;49.002;8.390;2022-11-20T14:02:15;11.50;99.90
1880;DHT22;49285;49.002;8.390;2022-11-20T14:04:47;11.50;99.90
1880;DHT22;49285;49.002;8.390;2022-11-20T14:07:13;11.50;99.90
1880;DHT22;49285;49.002;8.390;2022-11-20T14:09:50;11.50;99.90
1880;DHT22;49285;49.002;8.390;2022-11-20T14:12:18;11.40;99.90
1880;DHT22;49285;49.002;8.390;2022-11-20T14:14:52;11.40;99.90
1880;DHT22;49285;49.002;8.390;2022-11-20T14:19:48;11.30;99.90
1880;DHT22;49285;49.002;8.390;2022-11-20T14:22:17;11.40;99.90
1880;DHT22;49285;49.002;8.390;2022-11-20T14:25:00;11.30;99.90
1880;DHT22;49285;49.002;8.390;2022-11-20T14:27:26;11.30;99.90
1880;DHT22;49285;49.002;8.390;2022-11-20T14:29:52;11.30;99.90
1880;DHT22;49285;49.002;8.390;2022-11-20T14:32:20;11.30;99.90
1880;DHT22;49285;49.002;8.390;2022-11-20T14:34:48;11.20;99.90
1880;DHT22;49285;49.002;8.390;2022-11-20T14:37:21;11.10;99.90
1880;DHT22;49285;49.002;8.390;2022-11-20T14:39:50;11.10;99.90
1880;DHT22;49285;49.002;8.390;2022-11-20T14:42:20;11.10;99.90
1880;DHT22;49285;49.002;8.390;2022-11-20T14:44:48;11.20;99.90
1880;DHT22;49285;49.002;8.390;2022-11-20T14:47:18;11.10;99.90
1880;DHT22;49285;49.002;8.390;2022-11-20T14:49:44;11.00;99.90
1880;DHT22;49285;49.002;8.390;2022-11-20T14:52:17;11.00;99.90
1880;DHT22;49285;49.002;8.390;2022-11-20T14:54:58;11.10;99.90
1880;DHT22;49285;49.002;8.390;2022-11-20T14:57:34;11.00;99.90
1880;DHT22;49285;49.002;8.390;2022-11-20T15:00:20;11.00;99.90
1880;DHT22;49285;49.002;8.390;2022-11-20T15:02:49;10.80;99.90
1880;DHT22;49285;49.002;8.390;2022-11-20T15:05:16;10.80;99.90
1880;DHT22;49285;49.002;8.390;2022-11-20T15:07:46;10.90;99.90
1880;DHT22;49285;49.002;8.390;2022-11-20T15:10:19;10.90;99.90
1880;DHT22;49285;49.002;8.390;2022-11-20T15:12:54;10.90;99.90
1880;DHT22;49285;49.002;8.390;2022-11-20T15:18:09;10.90;99.90
1880;DHT22;49285;49.002;8.390;2022-11-20T15:20:36;10.90;99.90
1880;DHT22;49285;49.002;8.390;2022-11-20T15:23:01;10.80;99.90
1880;DHT22;49285;49.002;8.390;2022-11-20T15:25:27;10.90;99.90
1880;DHT22;49285;49.002;8.390;2022-11-20T15:27:56;10.80;99.90
1880;DHT22;49285;49.002;8.390;2022-11-20T15:30:22;10.80;99.90
1880;DHT22;49285;49.002;8.390;2022-11-20T15:32:48;10.90;99.90
1880;DHT22;49285;49.002;8.390;2022-11-20T15:35:15;10.90;99.90
1880;DHT22;49285;49.002;8.390;2022-11-20T15:37:41;10.90;99.90
1880;DHT22;49285;49.002;8.390;2022-11-20T15:40:08;10.90;99.90
1880;DHT22;49285;49.002;8.390;2022-11-20T15:42:34;10.90;99.90
1880;DHT22;49285;49.002;8.390;2022-11-20T15:45:00;10.80;99.90
1880;DHT22;49285;49.002;8.390;2022-11-20T15:47:32;10.70;99.90
1880;DHT22;49285;49.002;8.390;2022-11-20T15:49:58;10.60;99.90
1880;DHT22;49285;49.002;8.390;2022-11-20T15:52:24;10.60;99.90
1880;DHT22;49285;49.002;8.390;2022-11-20T15:54:49;10.60;99.90
1880;DHT22;49285;49.002;8.390;2022-11-20T15:57:15;10.60;99.90
1880;DHT22;49285;49.002;8.390;2022-11-20T15:59:40;10.60;99.90
1880;DHT22;49285;49.002;8.390;2022-11-20T16:02:14;10.60;99.90
1880;DHT22;49285;49.002;8.390;2022-11-20T16:04:40;10.60;99.90
1880;DHT22;49285;49.002;8.390;2022-11-20T16:07:07;10.60;99.90
1880;DHT22;49285;49.002;8.390;2022-11-20T16:09:32;10.50;99.90
1880;DHT22;49285;49.002;8.390;2022-11-20T16:11:58;10.60;99.90
1880;DHT22;49285;49.002;8.390;2022-11-20T16:14:25;10.60;99.90
1880;DHT22;49285;49.002;8.390;2022-11-20T16:17:10;10.50;99.90
1880;DHT22;49285;49.002;8.390;2022-11-20T16:19:35;10.60;99.90
1880;DHT22;49285;49.002;8.390;2022-11-20T16:22:01;10.60;99.90
1880;DHT22;49285;49.002;8.390;2022-11-20T16:24:27;10.60;99.90
1880;DHT22;49285;49.002;8.390;2022-11-20T16:26:54;10.60;99.90
1880;DHT22;49285;49.002;8.390;2022-11-20T16:29:20;10.60;99.90
1880;DHT22;49285;49.002;8.390;2022-11-20T16:31:46;10.60;99.90
1880;DHT22;49285;49.002;8.390;2022-11-20T16:34:14;10.60;99.90
1880;DHT22;49285;49.002;8.390;2022-11-20T16:36:41;10.70;99.90
1880;DHT22;49285;49.002;8.390;2022-11-20T16:39:07;10.60;99.90
1880;DHT22;49285;49.002;8.390;2022-11-20T16:41:34;10.50;99.90
1880;DHT22;49285;49.002;8.390;2022-11-20T16:44:02;10.60;99.90
1880;DHT22;49285;49.002;8.390;2022-11-20T16:46:30;10.50;99.90
1880;DHT22;49285;49.002;8.390;2022-11-20T16:48:59;10.50;99.90
1880;DHT22;49285;49.002;8.390;2022-11-20T16:51:26;10.60;99.90
1880;DHT22;49285;49.002;8.390;2022-11-20T16:53:52;10.60;99.90
1880;DHT22;49285;49.002;8.390;2022-11-20T16:56:22;10.50;99.90
1880;DHT22;49285;49.002;8.390;2022-11-20T16:58:49;10.50;99.90
1880;DHT22;49285;49.002;8.390;2022-11-20T17:01:17;10.50;99.90
1880;DHT22;49285;49.002;8.390;2022-11-20T17:03:45;10.50;99.90
1880;DHT22;49285;49.002;8.390;2022-11-20T17:06:20;10.60;99.90
1880;DHT22;49285;49.002;8.390;2022-11-20T17:08:46;10.60;99.90
1880;DHT22;49285;49.002;8.390;2022-11-20T17:11:14;10.60;99.90
1880;DHT22;49285;49.002;8.390;2022-11-20T17:13:40;10.60;99.90
1880;DHT22;49285;49.002;8.390;2022-11-20T17:16:09;10.50;99.90
1880;DHT22;49285;49.002;8.390;2022-11-20T17:18:35;10.40;99.90
1880;DHT22;49285;49.002;8.390;2022-11-20T17:21:01;10.40;99.90
1880;DHT22;49285;49.002;8.390;2022-11-20T17:23:38;10.30;99.90
1880;DHT22;49285;49.002;8.390;2022-11-20T17:26:07;10.10;99.90
1880;DHT22;49285;49.002;8.390;2022-11-20T17:28:34;10.10;99.90
1880;DHT22;49285;49.002;8.390;2022-11-20T17:31:07;10.00;99.90
1880;DHT22;49285;49.002;8.390;2022-11-20T17:33:34;9.90;99.90
1880;DHT22;49285;49.002;8.390;2022-11-20T17:36:00;9.90;99.90